Time;durP1;ratioP1;P1;durP2;ratioP2;P2;SDS_P1;SDS_P2;PMS_P1;PMS_P2;Temp;Humidity;BMP_temperature;BMP_pressure;BME280_temperature;BME280_humidity;BME280_pressure;Samples;Min_cycle;Max_cycle;Signal;HPM_P1;HPM_P2
2023/07/12 00:01:15;;;;;;;4.05;2.30;;;;;;;22.82;82.27;100721.72;5121704;28;20402;-65
2023/07/12 00:04:03;;;;;;;5.35;2.30;;;;;;;22.81;82.44;100722.88;5121577;28;20048;-65
2023/07/12 00:06:40;;;;;;;4.13;2.22;;;;;;;22.80;82.65;100726.00;5112357;28;20048;-66
2023/07/12 00:09:28;;;;;;;3.53;2.30;;;;;;;22.80;82.76;100726.00;5114535;28;20105;-64
2023/07/12 00:12:15;;;;;;;3.90;1.98;;;;;;;22.78;82.70;100723.59;5113303;28;20074;-65
2023/07/12 00:15:03;;;;;;;6.63;2.30;;;;;;;22.75;82.85;100713.19;5113956;28;20100;-64
2023/07/12 00:17:52;;;;;;;4.03;2.45;;;;;;;22.67;83.04;100716.94;5112424;28;20434;-64
2023/07/12 00:20:40;;;;;;;4.18;2.20;;;;;;;22.56;83.50;100727.72;5113095;28;20105;-64
2023/07/12 00:23:28;;;;;;;5.78;2.30;;;;;;;22.53;84.03;100728.41;5113512;28;20131;-65
2023/07/12 00:26:28;;;;;;;4.20;2.10;;;;;;;22.52;83.85;100738.72;5113543;28;20603;-65
2023/07/12 00:29:15;;;;;;;4.88;2.20;;;;;;;22.51;84.19;100737.13;5110149;28;20094;-65
2023/07/12 00:32:03;;;;;;;6.30;2.50;;;;;;;22.49;84.50;100750.53;5114455;28;20051;-65
2023/07/12 00:34:51;;;;;;;5.18;2.53;;;;;;;22.47;84.84;100752.06;5112348;28;20047;-64
2023/07/12 00:37:39;;;;;;;4.72;2.30;;;;;;;22.46;85.06;100750.41;5115654;28;20071;-65
2023/07/12 00:41:02;;;;;;;7.78;2.83;;;;;;;22.43;84.28;100751.94;5115039;28;20075;-65
2023/07/12 00:44:06;;;;;;;5.65;2.30;;;;;;;22.40;84.22;100766.53;5116755;28;20138;-65
2023/07/12 00:46:56;;;;;;;5.05;2.05;;;;;;;22.40;83.49;100762.94;5116622;28;20496;-64
2023/07/12 00:49:47;;;;;;;4.22;2.33;;;;;;;22.40;82.72;100769.28;5100627;28;20491;-64
2023/07/12 00:52:35;;;;;;;7.45;2.53;;;;;;;22.32;82.10;100781.31;5114264;28;20089;-64
2023/07/12 00:55:58;;;;;;;8.68;2.80;;;;;;;22.28;82.15;100795.09;5116985;28;20574;-65
2023/07/12 00:58:49;;;;;;;5.10;2.75;;;;;;;22.22;82.32;100802.03;5115654;28;20118;-64
2023/07/12 01:01:27;;;;;;;7.20;2.70;;;;;;;22.15;82.75;100800.97;5093138;28;20056;-64
2023/07/12 01:04:18;;;;;;;6.00;2.67;;;;;;;22.09;83.31;100792.88;5100635;28;20486;-66
2023/07/12 01:07:05;;;;;;;6.95;2.75;;;;;;;22.06;82.19;100796.34;5079741;28;20139;-64
2023/07/12 01:09:53;;;;;;;5.10;2.53;;;;;;;21.96;80.74;100807.91;5073392;28;20051;-65
2023/07/12 01:12:41;;;;;;;5.85;2.40;;;;;;;21.87;79.93;100810.78;5102015;28;20058;-64
2023/07/12 01:15:29;;;;;;;7.28;2.55;;;;;;;21.72;79.42;100816.19;5091030;28;20071;-65
2023/07/12 01:18:16;;;;;;;5.50;2.50;;;;;;;21.63;79.66;100802.44;5103009;28;20139;-65
2023/07/12 01:21:15;;;;;;;10.88;2.65;;;;;;;21.58;78.54;100806.25;5101334;28;20043;-64
2023/07/12 01:24:03;;;;;;;5.10;2.25;;;;;;;21.57;78.28;100837.88;5096604;28;20048;-65
2023/07/12 01:26:56;;;;;;;9.05;2.70;;;;;;;21.52;77.58;100818.69;5098101;28;20134;-64
2023/07/12 01:29:48;;;;;;;7.40;2.50;;;;;;;21.53;77.62;100814.78;5087357;28;20078;-64
2023/07/12 01:32:38;;;;;;;7.78;2.50;;;;;;;21.54;77.06;100777.56;5112524;28;20105;-65
2023/07/12 01:35:13;;;;;;;7.72;2.70;;;;;;;21.53;77.21;100775.13;5099178;28;20059;-65
2023/07/12 01:38:00;;;;;;;6.47;2.35;;;;;;;21.52;76.94;100787.38;5097165;28;20461;-65
2023/07/12 01:40:48;;;;;;;6.85;2.45;;;;;;;21.47;77.93;100783.66;5112960;28;20051;-67
2023/07/12 01:43:36;;;;;;;8.30;2.63;;;;;;;21.48;78.68;100801.94;5097400;28;20384;-65
2023/07/12 01:46:25;;;;;;;6.72;2.30;;;;;;;21.40;79.95;100805.59;5115316;28;20047;-64
2023/07/12 01:49:12;;;;;;;7.55;2.38;;;;;;;21.39;80.12;100792.06;5098337;28;20052;-65
2023/07/12 01:52:00;;;;;;;9.02;2.67;;;;;;;21.39;80.66;100767.13;5098653;28;20052;-65
2023/07/12 01:54:48;;;;;;;7.65;2.92;;;;;;;21.41;81.33;100781.47;5098990;28;20047;-65
2023/07/12 01:57:38;;;;;;;9.20;2.75;;;;;;;21.40;82.46;100774.31;5082379;28;20475;-65
2023/07/12 02:00:26;;;;;;;6.18;2.55;;;;;;;21.44;82.16;100761.38;5115861;28;20105;-65
2023/07/12 02:03:15;;;;;;;7.60;2.80;;;;;;;21.38;82.15;100735.81;5100864;28;20056;-65
2023/07/12 02:05:53;;;;;;;6.45;2.20;;;;;;;21.38;82.82;100741.38;5082300;28;20101;-65
2023/07/12 02:08:42;;;;;;;8.20;2.58;;;;;;;21.39;83.20;100733.84;5113867;28;20538;-64
2023/07/12 02:11:29;;;;;;;7.05;2.53;;;;;;;21.42;83.50;100752.59;5116107;28;20081;-64
2023/07/12 02:14:17;;;;;;;4.53;2.05;;;;;;;21.44;84.00;100761.38;5099578;28;20113;-65
2023/07/12 02:17:05;;;;;;;6.75;2.50;;;;;;;21.45;84.84;100751.91;5097624;28;20134;-65
2023/07/12 02:19:52;;;;;;;8.32;2.65;;;;;;;21.42;85.18;100731.22;5084528;28;20399;-65
2023/07/12 02:22:44;;;;;;;5.53;2.38;;;;;;;21.44;85.43;100728.13;5100395;28;20046;-64
2023/07/12 02:25:36;;;;;;;6.65;2.88;;;;;;;21.38;85.95;100812.59;5105821;28;20048;-65
2023/07/12 02:28:24;;;;;;;6.15;2.45;;;;;;;21.31;85.97;100804.03;5103071;28;20494;-65
2023/07/12 02:31:22;;;;;;;5.72;2.47;;;;;;;21.25;85.51;100790.41;5099374;28;20079;-65
2023/07/12 02:34:09;;;;;;;8.02;2.78;;;;;;;21.24;86.25;100786.00;5113641;28;20048;-65
2023/07/12 02:36:57;;;;;;;7.47;2.47;;;;;;;21.24;87.21;100804.63;5081413;28;20123;-65
2023/07/12 02:39:46;;;;;;;6.30;2.42;;;;;;;21.23;87.22;100795.47;5105912;28;20070;-65
2023/07/12 02:42:34;;;;;;;6.85;3.15;;;;;;;21.21;87.48;100759.00;5098892;28;20093;-65
2023/07/12 02:45:23;;;;;;;5.80;2.15;;;;;;;21.11;87.38;100764.94;5114766;28;20384;-65
2023/07/12 02:48:11;;;;;;;7.20;2.80;;;;;;;21.02;88.98;100758.66;5106249;28;20052;-64
2023/07/12 02:50:59;;;;;;;5.53;2.40;;;;;;;21.03;88.50;100766.66;5107272;28;20555;-65
2023/07/12 02:53:47;;;;;;;5.57;2.47;;;;;;;21.05;88.74;100750.50;5109992;28;20436;-64
2023/07/12 02:56:35;;;;;;;8.60;2.97;;;;;;;21.07;89.32;100758.47;5112349;28;20530;-66
2023/07/12 02:59:22;;;;;;;7.68;2.70;;;;;;;21.04;89.46;100770.22;5082146;28;20079;-65
2023/07/12 03:02:14;;;;;;;5.50;2.60;;;;;;;21.01;89.43;100779.22;5098321;28;20051;-65
2023/07/12 03:05:02;;;;;;;7.10;2.90;;;;;;;21.00;89.52;100774.84;5114706;28;20495;-65
2023/07/12 03:07:53;;;;;;;7.30;3.00;;;;;;;20.93;90.10;100780.13;5103665;28;20048;-64
2023/07/12 03:10:40;;;;;;;9.38;2.80;;;;;;;20.85;90.62;100781.78;5099695;28;20051;-65
2023/07/12 03:13:28;;;;;;;9.48;3.00;;;;;;;20.80;90.42;100782.81;5098624;28;20086;-65
2023/07/12 03:16:16;;;;;;;5.57;2.60;;;;;;;20.73;90.90;100782.53;5099092;28;20051;-65
2023/07/12 03:19:04;;;;;;;6.57;3.05;;;;;;;20.72;90.94;100785.66;5101292;28;20050;-66
2023/07/12 03:21:52;;;;;;;7.18;3.38;;;;;;;20.73;90.61;100793.63;5114385;28;20114;-65
2023/07/12 03:24:39;;;;;;;7.20;2.92;;;;;;;20.69;90.10;100783.56;5113496;28;20130;-65
2023/07/12 03:27:27;;;;;;;5.30;2.67;;;;;;;20.67;90.11;100800.53;5113681;28;20056;-66
2023/07/12 03:30:15;;;;;;;4.82;2.33;;;;;;;20.64;90.06;100795.66;5112637;28;20060;-65
2023/07/12 03:33:02;;;;;;;7.05;2.78;;;;;;;20.66;90.02;100796.13;5099657;28;20054;-64
2023/07/12 03:35:50;;;;;;;6.78;2.60;;;;;;;20.63;89.79;100788.50;5113720;28;20064;-65
2023/07/12 03:38:39;;;;;;;8.00;2.72;;;;;;;20.60;90.21;100794.69;5083151;28;20399;-64
2023/07/12 03:41:27;;;;;;;4.85;2.60;;;;;;;20.59;90.34;100809.72;5114107;28;20514;-64
2023/07/12 03:44:15;;;;;;;6.50;3.05;;;;;;;20.57;90.05;100812.00;5112873;28;20055;-65
2023/07/12 03:47:03;;;;;;;5.45;2.65;;;;;;;20.58;90.18;100813.59;5098631;28;20458;-65
2023/07/12 03:49:51;;;;;;;4.75;2.38;;;;;;;20.58;89.90;100821.91;5094073;28;20173;-66
2023/07/12 03:52:38;;;;;;;8.48;3.35;;;;;;;20.61;89.52;100818.47;5114220;28;20564;-66
2023/07/12 03:55:26;;;;;;;5.57;2.95;;;;;;;20.60;89.67;100822.38;5113032;28;20044;-65
2023/07/12 03:58:20;;;;;;;6.15;2.38;;;;;;;20.73;88.20;100829.59;5099036;28;20056;-65
2023/07/12 04:01:11;;;;;;;6.38;2.58;;;;;;;20.70;88.34;100821.19;5082268;28;20056;-64
2023/07/12 04:03:59;;;;;;;7.28;3.08;;;;;;;20.70;88.76;100823.94;5093693;28;20048;-64
2023/07/12 04:06:47;;;;;;;8.05;3.30;;;;;;;20.55;89.49;100833.63;5107458;28;20047;-65
2023/07/12 04:09:35;;;;;;;8.05;2.80;;;;;;;20.58;88.77;100830.22;5095883;28;20539;-65
2023/07/12 04:12:25;;;;;;;11.82;4.35;;;;;;;20.45;88.70;100837.59;5114214;28;20097;-66
2023/07/12 04:15:13;;;;;;;6.00;3.25;;;;;;;20.36;89.13;100832.09;5127683;28;20047;-67
2023/07/12 04:18:02;;;;;;;6.63;3.13;;;;;;;20.45;88.53;100831.25;5111580;28;20138;-67
2023/07/12 04:20:52;;;;;;;9.00;3.92;;;;;;;20.44;88.07;100830.44;5125318;28;20047;-64
2023/07/12 04:23:39;;;;;;;8.30;3.92;;;;;;;20.35;88.71;100838.78;5123927;28;20079;-63
2023/07/12 04:26:28;;;;;;;7.60;3.50;;;;;;;20.38;88.43;100845.63;5127703;28;20090;-66
2023/07/12 04:29:15;;;;;;;8.77;3.40;;;;;;;20.45;88.19;100840.38;5118989;28;20499;-63
2023/07/12 04:32:03;;;;;;;11.18;4.25;;;;;;;20.39;88.29;100847.22;5116727;28;20407;-66
2023/07/12 04:34:51;;;;;;;8.60;3.50;;;;;;;20.33;88.11;100845.81;5116354;28;20113;-66
2023/07/12 04:37:45;;;;;;;12.55;3.72;;;;;;;20.37;88.26;100844.81;5116960;28;20139;-64
2023/07/12 04:40:33;;;;;;;10.77;3.58;;;;;;;20.46;87.23;100832.88;5102088;28;20078;-66
2023/07/12 04:43:21;;;;;;;11.68;3.63;;;;;;;20.44;86.77;100847.03;5115241;28;20042;-65
2023/07/12 04:46:08;;;;;;;9.35;3.40;;;;;;;20.46;86.06;100847.50;5111925;28;20131;-65
2023/07/12 04:48:56;;;;;;;9.45;3.30;;;;;;;20.41;86.49;100847.72;5101939;28;20142;-65
2023/07/12 04:51:44;;;;;;;8.15;3.47;;;;;;;20.34;86.53;100851.00;5100081;28;20155;-66
2023/07/12 04:54:34;;;;;;;10.80;3.85;;;;;;;20.35;86.57;100844.31;5106404;28;20130;-66
2023/07/12 04:57:22;;;;;;;8.00;3.00;;;;;;;20.45;86.01;100856.16;5113372;28;20087;-66
2023/07/12 05:00:13;;;;;;;7.07;3.20;;;;;;;20.43;85.99;100862.03;5116757;28;20044;-64
2023/07/12 05:03:01;;;;;;;9.20;3.45;;;;;;;20.36;85.91;100851.47;5113746;28;20060;-65
2023/07/12 05:05:42;;;;;;;7.82;3.08;;;;;;;20.39;85.99;100859.09;4381516;28;10000654;-66
2023/07/12 05:08:30;;;;;;;8.95;3.42;;;;;;;20.40;85.31;100857.97;5112926;28;20155;-66
2023/07/12 05:11:18;;;;;;;7.88;2.80;;;;;;;20.42;85.49;100861.22;5097410;28;20203;-65
2023/07/12 05:14:05;;;;;;;8.38;3.00;;;;;;;20.46;84.92;100860.53;5094794;28;20048;-66
2023/07/12 05:16:43;;;;;;;8.13;3.35;;;;;;;20.49;84.60;100852.38;5105961;28;20042;-65
2023/07/12 05:19:30;;;;;;;10.07;3.17;;;;;;;20.44;84.75;100863.63;5106856;28;20097;-66
2023/07/12 05:22:18;;;;;;;10.93;3.55;;;;;;;20.48;84.52;100869.34;5097506;28;20089;-65
2023/07/12 05:25:01;;;;;;;8.93;3.25;;;;;;;20.63;83.30;100863.25;5110840;28;20048;-65
2023/07/12 05:27:49;;;;;;;7.88;3.20;;;;;;;20.46;84.26;100866.09;5100154;28;20142;-65
2023/07/12 05:30:36;;;;;;;7.20;2.75;;;;;;;20.41;84.47;100864.31;5084681;28;20052;-65
2023/07/12 05:33:24;;;;;;;9.15;3.50;;;;;;;20.38;84.72;100871.31;5085734;28;20054;-67
2023/07/12 05:36:12;;;;;;;5.97;2.80;;;;;;;20.33;85.11;100873.47;5105570;28;20140;-66
2023/07/12 05:39:00;;;;;;;8.90;3.25;;;;;;;20.48;84.32;100891.47;5086155;28;20048;-66
2023/07/12 05:41:48;;;;;;;8.25;2.70;;;;;;;20.42;84.76;100888.91;5094970;28;20504;-64
2023/07/12 05:44:36;;;;;;;9.55;3.40;;;;;;;20.35;84.93;100893.34;5113711;28;20466;-66
2023/07/12 05:47:23;;;;;;;8.38;3.30;;;;;;;20.37;84.37;100893.78;5085856;28;20056;-66
2023/07/12 05:50:13;;;;;;;7.93;2.92;;;;;;;20.32;84.10;100888.44;5097081;28;20051;-66
2023/07/12 05:53:02;;;;;;;9.75;3.30;;;;;;;20.19;84.83;100895.84;5087808;28;20051;-66
2023/07/12 05:55:55;;;;;;;9.55;3.05;;;;;;;20.20;84.50;100891.91;5100569;28;20051;-66
2023/07/12 05:58:43;;;;;;;8.30;2.80;;;;;;;20.13;84.70;100891.59;5069767;28;20087;-65
2023/07/12 06:01:31;;;;;;;10.50;3.60;;;;;;;20.16;85.01;100886.25;5099697;28;20048;-66
2023/07/12 06:04:18;;;;;;;9.38;3.58;;;;;;;20.18;85.42;100897.00;5111910;28;20092;-65
2023/07/12 06:07:08;;;;;;;9.23;3.47;;;;;;;20.06;85.44;100894.06;5099660;28;20047;-65
2023/07/12 06:09:56;;;;;;;6.47;3.13;;;;;;;20.03;86.08;100903.84;5097883;28;20047;-66
2023/07/12 06:12:44;;;;;;;9.35;3.10;;;;;;;20.16;85.17;100902.03;5114871;28;20425;-65
2023/07/12 06:15:31;;;;;;;23.50;6.28;;;;;;;20.32;84.15;100905.84;5100302;28;20517;-65
2023/07/12 06:18:19;;;;;;;17.73;6.22;;;;;;;20.43;82.77;100901.59;5113829;28;20414;-66
2023/07/12 06:21:09;;;;;;;19.92;5.25;;;;;;;20.43;83.71;100911.84;5097261;28;20139;-65
2023/07/12 06:23:59;;;;;;;27.75;6.97;;;;;;;20.29;84.16;100906.53;5103017;28;20048;-64
2023/07/12 06:26:47;;;;;;;10.68;3.50;;;;;;;20.26;84.57;100909.97;5083355;28;20070;-65
2023/07/12 06:29:35;;;;;;;16.98;5.00;;;;;;;20.34;84.58;100914.63;5112909;28;20078;-66
2023/07/12 06:32:04;;;;;;;18.77;4.82;;;;;;;20.38;83.86;100918.38;5113925;28;20051;-65
2023/07/12 06:34:51;;;;;;;11.45;3.80;;;;;;;20.25;84.02;100915.81;5098660;28;20432;-65
2023/07/12 06:37:39;;;;;;;13.13;3.58;;;;;;;20.19;84.72;100915.19;5114049;28;20051;-64
2023/07/12 06:40:27;;;;;;;10.57;3.20;;;;;;;19.94;85.81;100923.25;5098507;28;20051;-65
2023/07/12 06:43:14;;;;;;;12.10;3.55;;;;;;;20.00;86.20;100927.44;5112374;28;20131;-65
2023/07/12 06:46:03;;;;;;;11.20;3.20;;;;;;;20.15;85.29;100944.66;5115265;28;20048;-65
2023/07/12 06:48:51;;;;;;;8.95;2.80;;;;;;;20.24;84.70;100956.53;5114710;28;20122;-65
2023/07/12 06:51:46;;;;;;;11.48;3.35;;;;;;;20.11;85.16;100965.84;5100169;28;20058;-66
2023/07/12 06:54:33;;;;;;;13.60;4.25;;;;;;;19.88;86.31;100960.50;5079802;28;20127;-65
2023/07/12 06:57:21;;;;;;;9.40;3.47;;;;;;;19.72;87.58;100959.38;5097123;28;20062;-64
2023/07/12 07:00:12;;;;;;;24.85;3.80;;;;;;;19.69;87.42;100958.06;5114772;28;20125;-65
2023/07/12 07:03:00;;;;;;;11.88;3.72;;;;;;;19.71;87.73;100958.56;5113665;28;20048;-66
2023/07/12 07:05:48;;;;;;;12.13;3.22;;;;;;;19.77;87.58;100960.03;5098430;28;20113;-64
2023/07/12 07:08:35;;;;;;;9.57;3.17;;;;;;;19.89;87.14;100967.66;5097111;28;20127;-66
2023/07/12 07:11:23;;;;;;;12.18;3.70;;;;;;;19.88;87.52;100976.28;5114062;28;20051;-66
2023/07/12 07:14:11;;;;;;;9.07;3.25;;;;;;;19.99;86.73;100980.34;5093769;28;20086;-66
2023/07/12 07:16:59;;;;;;;9.10;3.10;;;;;;;20.18;85.49;100975.25;5088182;28;20079;-66
2023/07/12 07:19:47;;;;;;;11.18;3.10;;;;;;;20.22;84.73;100983.69;5093313;28;20044;-66
2023/07/12 07:22:35;;;;;;;9.93;4.03;;;;;;;20.24;84.69;100986.94;5073146;28;20048;-65
2023/07/12 07:25:24;;;;;;;8.50;3.20;;;;;;;20.33;83.94;100982.22;5094145;28;20052;-64
2023/07/12 07:28:12;;;;;;;8.65;3.08;;;;;;;20.27;83.69;100980.75;5079239;28;20048;-65
2023/07/12 07:31:00;;;;;;;7.53;2.72;;;;;;;20.18;84.15;100994.63;5065332;28;20075;-64
2023/07/12 07:33:48;;;;;;;19.95;4.10;;;;;;;20.15;84.67;100995.25;5097271;28;20048;-65
2023/07/12 07:36:35;;;;;;;7.28;2.50;;;;;;;20.26;83.87;100997.69;5099139;28;20083;-66
2023/07/12 07:39:23;;;;;;;11.48;3.10;;;;;;;20.31;84.33;100998.31;5113903;28;20048;-66
2023/07/12 07:42:11;;;;;;;8.10;2.83;;;;;;;20.33;83.53;101001.59;5113540;28;20468;-66
2023/07/12 07:44:59;;;;;;;8.98;3.00;;;;;;;20.42;82.97;100996.84;5113853;28;20492;-65
2023/07/12 07:47:46;;;;;;;13.07;3.50;;;;;;;20.43;82.76;101004.00;5114006;28;20090;-65
2023/07/12 07:50:34;;;;;;;12.23;3.75;;;;;;;20.32;82.94;100999.94;5113802;28;20055;-64
2023/07/12 07:53:22;;;;;;;12.50;3.50;;;;;;;20.29;83.15;101011.69;5114112;28;20067;-66
2023/07/12 07:56:11;;;;;;;9.68;3.10;;;;;;;20.20;83.77;101014.47;5113950;28;20057;-65
2023/07/12 07:58:59;;;;;;;10.65;2.95;;;;;;;20.28;84.18;101014.78;5099526;28;20047;-65
2023/07/12 08:01:47;;;;;;;6.85;2.55;;;;;;;20.46;82.50;101008.06;5114189;28;20094;-63
2023/07/12 08:04:28;;;;;;;13.77;3.85;;;;;;;20.59;82.59;101014.56;5097275;28;20121;-66
2023/07/12 08:07:19;;;;;;;11.45;3.60;;;;;;;20.43;82.83;101017.81;5086058;28;20058;-66
2023/07/12 08:10:09;;;;;;;9.90;3.08;;;;;;;20.37;82.40;101019.16;5100299;28;20104;-65
2023/07/12 08:12:55;;;;;;;9.57;3.45;;;;;;;20.31;82.76;101025.19;5113621;28;20062;-64
2023/07/12 08:15:43;;;;;;;12.52;3.33;;;;;;;20.26;82.91;101026.19;5099494;28;20512;-62
2023/07/12 08:18:30;;;;;;;10.27;3.53;;;;;;;20.21;83.91;101029.13;5107106;28;20059;-64
2023/07/12 08:21:18;;;;;;;13.80;3.67;;;;;;;20.43;82.62;101034.44;5092411;28;20094;-63
2023/07/12 08:24:06;;;;;;;10.85;3.17;;;;;;;20.53;81.68;101026.94;5092808;28;20075;-63
2023/07/12 08:26:54;;;;;;;9.38;3.50;;;;;;;20.56;80.63;101031.81;5093619;28;20052;-64
2023/07/12 08:29:55;;;;;;;10.05;2.80;;;;;;;20.41;81.96;101041.44;5104125;28;20058;-65
2023/07/12 08:32:52;;;;;;;13.30;4.10;;;;;;;20.23;82.81;101029.63;5106033;28;20123;-64
2023/07/12 08:35:40;;;;;;;9.98;3.47;;;;;;;20.16;83.46;101040.38;5093898;28;20492;-63
2023/07/12 08:38:35;;;;;;;11.00;3.10;;;;;;;20.20;82.54;101036.63;5099880;28;20052;-62
2023/07/12 08:41:26;;;;;;;12.50;3.65;;;;;;;20.22;82.71;101047.34;5108473;28;20073;-61
2023/07/12 08:44:14;;;;;;;12.10;3.42;;;;;;;20.24;82.32;101053.34;5084087;28;20058;-64
2023/07/12 08:47:02;;;;;;;13.32;4.25;;;;;;;20.20;81.54;101041.31;5096108;28;20055;-59
2023/07/12 08:49:50;;;;;;;11.18;3.25;;;;;;;20.21;81.97;101038.22;5112572;28;20135;-57
2023/07/12 08:52:40;;;;;;;15.35;4.18;;;;;;;20.29;82.56;101044.88;5122284;28;20138;-64
2023/07/12 08:55:28;;;;;;;12.73;4.03;;;;;;;20.30;83.35;101043.75;5112078;28;20488;-64
2023/07/12 08:58:36;;;;;;;8.75;3.13;;;;;;;20.23;82.28;101046.22;5108038;28;20051;-65
2023/07/12 09:01:42;;;;;;;14.90;4.05;;;;;;;20.34;81.79;101041.13;5104105;28;20047;-64
2023/07/12 09:04:31;;;;;;;13.88;3.38;;;;;;;20.47;81.95;101050.38;5112112;28;20071;-65
2023/07/12 09:07:33;;;;;;;10.25;3.53;;;;;;;20.54;81.18;101047.91;5120670;28;20055;-63
2023/07/12 09:10:33;;;;;;;12.68;3.25;;;;;;;20.58;80.11;101052.50;5102358;28;20052;-63
2023/07/12 09:13:22;;;;;;;9.10;3.22;;;;;;;20.70;78.81;101046.28;5113726;28;20450;-64
2023/07/12 09:16:27;;;;;;;12.38;3.45;;;;;;;20.75;78.04;101045.28;5095174;28;20076;-64
2023/07/12 09:19:22;;;;;;;8.32;3.22;;;;;;;20.82;78.72;101051.13;5106221;28;20089;-65
2023/07/12 09:22:15;;;;;;;9.55;3.40;;;;;;;20.88;77.41;101049.81;5095595;28;20102;-62
2023/07/12 09:25:07;;;;;;;11.45;3.13;;;;;;;20.89;77.48;101045.06;5095145;28;20492;-63
2023/07/12 09:27:55;;;;;;;8.07;2.80;;;;;;;20.88;76.89;101048.97;5094301;28;20136;-65
2023/07/12 09:30:35;;;;;;;9.55;3.15;;;;;;;20.89;77.20;101040.34;5093899;28;20120;-65
2023/07/12 09:33:27;;;;;;;9.52;3.53;;;;;;;20.94;76.60;101034.59;5101472;28;20462;-62
2023/07/12 09:36:18;;;;;;;8.85;2.85;;;;;;;21.00;76.99;101029.72;5100945;28;20051;-63
2023/07/12 09:39:08;;;;;;;12.10;3.40;;;;;;;21.05;76.19;101027.56;5106479;28;20052;-64
2023/07/12 09:41:59;;;;;;;9.88;3.05;;;;;;;21.07;76.02;101024.47;5099427;28;20565;-63
2023/07/12 09:44:48;;;;;;;11.38;3.00;;;;;;;21.11;74.97;101024.59;5086586;28;20040;-64
2023/07/12 09:48:01;;;;;;;8.85;2.75;;;;;;;21.12;74.85;101027.03;5102025;28;20447;-66
2023/07/12 09:51:06;;;;;;;10.30;2.75;;;;;;;21.18;74.02;101013.78;5074467;28;20039;-65
2023/07/12 09:54:32;;;;;;;9.63;2.95;;;;;;;21.34;73.22;101025.09;5099845;28;20051;-65
2023/07/12 09:57:51;;;;;;;8.02;2.90;;;;;;;21.42;72.04;101027.03;5092745;28;20139;-65
2023/07/12 10:01:22;;;;;;;8.82;2.90;;;;;;;21.48;72.69;101028.47;5111100;28;20070;-65
2023/07/12 10:04:39;;;;;;;13.57;4.80;;;;;;;21.48;71.01;101022.94;5088301;28;20126;-66
2023/07/12 10:07:38;;;;;;;18.20;6.78;;;;;;;21.35;71.85;101023.94;5112495;28;20451;-65
2023/07/12 10:10:32;;;;;;;23.80;8.73;;;;;;;21.34;71.75;101016.78;5114132;28;20043;-64
2023/07/12 10:13:46;;;;;;;14.73;5.65;;;;;;;21.41;71.36;101023.44;5113059;28;20522;-64
2023/07/12 10:16:41;;;;;;;14.23;4.38;;;;;;;21.45;68.01;101029.13;5106154;28;20043;-65
2023/07/12 10:19:37;;;;;;;14.57;5.20;;;;;;;21.51;69.54;101008.38;5100410;28;20055;-64
2023/07/12 10:22:38;;;;;;;9.18;3.40;;;;;;;21.56;70.08;101012.91;5098069;28;20141;-66
2023/07/12 10:25:37;;;;;;;10.55;3.58;;;;;;;21.62;69.38;101017.94;5099889;28;20058;-63
2023/07/12 10:28:46;;;;;;;8.25;3.15;;;;;;;21.72;69.28;101013.09;5085875;28;20050;-65
2023/07/12 10:31:47;;;;;;;10.07;3.58;;;;;;;21.78;69.04;101025.63;5112318;28;20391;-65
2023/07/12 10:35:12;;;;;;;11.02;3.28;;;;;;;21.84;67.38;101030.63;5089448;28;20119;-65
2023/07/12 10:38:03;;;;;;;8.00;3.20;;;;;;;21.67;64.72;101031.59;5111400;28;20582;-63
2023/07/12 10:41:00;;;;;;;6.15;2.63;;;;;;;21.65;67.12;101024.75;5072344;28;20158;-65
2023/07/12 10:43:53;;;;;;;8.32;3.00;;;;;;;21.75;66.46;101020.75;5099773;28;20043;-65
2023/07/12 10:46:47;;;;;;;14.02;3.05;;;;;;;21.68;65.65;101024.06;5086051;28;20096;-65
2023/07/12 10:49:46;;;;;;;7.97;3.17;;;;;;;21.65;66.74;101033.88;5114857;28;20044;-63
2023/07/12 10:52:53;;;;;;;9.40;2.78;;;;;;;21.68;67.74;101038.75;5073702;28;20048;-64
2023/07/12 10:55:49;;;;;;;10.10;3.83;;;;;;;21.77;66.06;101038.69;5096328;28;20554;-65
2023/07/12 10:58:47;;;;;;;12.90;3.35;;;;;;;21.66;64.93;101034.69;5080009;28;20051;-64
2023/07/12 11:01:42;;;;;;;8.57;3.05;;;;;;;21.63;65.54;101030.63;5076508;28;20052;-64
2023/07/12 11:04:45;;;;;;;10.90;3.15;;;;;;;21.63;66.67;101035.38;5111242;28;20104;-64
2023/07/12 11:07:36;;;;;;;9.35;3.20;;;;;;;21.66;66.85;101032.72;5070831;28;20130;-64
2023/07/12 11:10:26;;;;;;;12.60;3.05;;;;;;;21.74;67.06;101030.22;5097585;28;20472;-66
2023/07/12 11:13:15;;;;;;;10.45;3.35;;;;;;;21.77;66.05;101026.75;5099269;28;20075;-66
2023/07/12 11:16:15;;;;;;;10.32;3.63;;;;;;;21.80;65.24;101028.88;5099223;28;20057;-64
2023/07/12 11:18:52;;;;;;;14.65;3.28;;;;;;;21.82;64.34;101040.44;5096897;28;20043;-66
2023/07/12 11:21:26;;;;;;;9.45;3.42;;;;;;;21.89;64.40;101024.88;5079700;28;20044;-67
2023/07/12 11:23:54;;;;;;;8.93;2.70;;;;;;;21.99;64.18;101026.41;5114404;28;20047;-65
2023/07/12 11:26:31;;;;;;;12.23;3.92;;;;;;;22.08;63.12;101024.38;5080153;28;20058;-67
2023/07/12 11:29:44;;;;;;;9.50;3.13;;;;;;;22.05;62.41;101027.81;5093946;28;20052;-66
2023/07/12 11:32:30;;;;;;;11.40;3.22;;;;;;;22.00;61.81;101016.13;4994402;28;20115;-65
2023/07/12 11:35:17;;;;;;;8.82;2.75;;;;;;;21.96;61.87;101021.56;4995094;28;20056;-66
2023/07/12 11:37:47;;;;;;;9.77;2.80;;;;;;;21.95;59.91;101030.22;5062861;28;20072;-66
2023/07/12 11:40:20;;;;;;;9.55;2.80;;;;;;;22.01;60.80;101024.13;5094791;28;20066;-65
2023/07/12 11:42:49;;;;;;;10.40;2.83;;;;;;;22.01;61.16;101024.13;5059576;28;20093;-65
2023/07/12 11:45:20;;;;;;;14.45;3.10;;;;;;;22.02;61.98;101036.81;5111730;28;20441;-66
2023/07/12 11:47:50;;;;;;;8.25;2.72;;;;;;;22.01;61.46;101040.75;5096324;28;20055;-66
2023/07/12 11:50:26;;;;;;;9.13;3.03;;;;;;;21.97;60.74;101039.81;5096005;28;20043;-65
2023/07/12 11:52:54;;;;;;;;;;;;;;;21.89;60.13;101054.59;5094710;28;20055;-64
2023/07/12 11:55:26;;;;;;;9.63;3.10;;;;;;;21.77;64.39;101052.56;5070704;28;19923;-65
2023/07/12 11:57:55;;;;;;;14.70;4.10;;;;;;;21.58;67.10;101057.75;5090790;28;20438;-65
2023/07/12 12:00:38;;;;;;;11.30;3.92;;;;;;;21.42;67.52;101061.09;5092226;28;20063;-66
2023/07/12 12:03:06;;;;;;;12.02;3.85;;;;;;;21.35;67.88;101069.09;5093814;28;20055;-63
2023/07/12 12:05:34;;;;;;;13.88;3.70;;;;;;;21.31;68.28;101067.34;5094334;28;20058;-65
2023/07/12 12:08:05;;;;;;;13.18;3.50;;;;;;;21.24;68.45;101068.69;5095039;28;20411;-65
2023/07/12 12:10:36;;;;;;;12.25;3.60;;;;;;;21.20;68.78;101075.22;5062543;28;20073;-64
2023/07/12 12:13:23;;;;;;;13.27;3.80;;;;;;;21.18;68.90;101070.00;5069440;28;20055;-65
2023/07/12 12:16:02;;;;;;;12.15;3.70;;;;;;;21.28;68.81;101064.09;5110888;28;20044;-65
2023/07/12 12:18:34;;;;;;;15.20;4.05;;;;;;;21.34;68.39;101067.50;5077203;28;20084;-65
2023/07/12 12:21:04;;;;;;;10.38;3.20;;;;;;;21.35;68.52;101071.88;5078873;28;20055;-65
2023/07/12 12:23:41;;;;;;;11.98;4.07;;;;;;;21.38;68.00;101057.38;5113311;28;20047;-63
2023/07/12 12:26:28;;;;;;;17.88;4.45;;;;;;;21.42;67.94;101072.19;5095331;28;20048;-65
2023/07/12 12:29:04;;;;;;;17.55;4.00;;;;;;;21.38;67.17;101067.63;5095002;28;20057;-66
2023/07/12 12:31:33;;;;;;;11.30;3.83;;;;;;;21.39;67.58;101069.25;5093813;28;20044;-64
2023/07/12 12:34:09;;;;;;;9.98;3.33;;;;;;;21.42;67.96;101069.41;5063292;28;20491;-64
2023/07/12 12:36:37;;;;;;;10.40;3.37;;;;;;;21.47;68.05;101071.19;5101327;28;20487;-65
2023/07/12 12:39:18;;;;;;;12.45;3.63;;;;;;;21.51;68.53;101077.69;5078117;28;20048;-65
2023/07/12 12:41:55;;;;;;;11.65;3.58;;;;;;;21.54;67.73;101076.22;5063317;28;20056;-65
2023/07/12 12:44:28;;;;;;;13.48;3.97;;;;;;;21.60;67.89;101072.06;5079168;28;20054;-65
2023/07/12 12:46:58;;;;;;;13.65;3.67;;;;;;;21.72;67.99;101066.63;5081776;28;20051;-66
2023/07/12 12:49:31;;;;;;;10.15;3.42;;;;;;;21.83;63.74;101058.69;5098026;28;20039;-65
2023/07/12 12:52:17;;;;;;;13.05;3.38;;;;;;;21.87;62.45;101051.34;5116887;28;20399;-65
2023/07/12 12:54:48;;;;;;;;;;;;;;;21.97;60.75;101053.69;5066702;28;20048;-64
2023/07/12 12:57:27;;;;;;;8.77;2.85;;;;;;;22.05;60.49;101055.56;5095670;28;19920;-66
2023/07/12 12:59:58;;;;;;;11.35;3.40;;;;;;;22.17;60.85;101054.00;5121896;28;20044;-64